Terminal Aerodrome Forecast
Issued by NWS

Home | Current Version | Previous Version | Text Only | Print | Product List | Glossary On
Versions: 1 2 3 4 5 6 7 8 9 10 11 12 13 14 15 16 17 18 19 20
000
FTUS41 KPBZ 031720
TAFZZV
TAF
KZZV 031720Z 0318/0418 09008KT P6SM VCSH BKN060 BKN250
     FM031900 05003KT P6SM -SHRA OVC050
     FM040500 VRB03KT 3SM -SHRA BR OVC035
     FM041400 34006KT P6SM FEW040=

USA.gov is the U.S. government's official web portal to all federal, state and local government web resources and services.